Time;durP1;ratioP1;P1;durP2;ratioP2;P2;SDS_P1;SDS_P2;PMS_P1;PMS_P2;Temp;Humidity;BMP_temperature;BMP_pressure;BME280_temperature;BME280_humidity;BME280_pressure;Samples;Min_cycle;Max_cycle;Signal;HPM_P1;HPM_P2
2021/12/19 00:00:48;;;;;;;5.37;2.93;;;7.30;99.90;7.20;101652.00;;;;5035257;27;122489;-69
2021/12/19 00:03:36;;;;;;;4.87;2.83;;;7.30;99.90;7.20;101637.00;;;;5035945;27;92179;-70
2021/12/19 00:08:52;;;;;;;2.33;2.10;;;8.20;99.90;7.20;101636.00;;;;5035267;27;93075;-71
2021/12/19 00:11:22;;;;;;;4.23;3.13;;;7.30;99.90;7.20;101642.00;;;;5037244;27;93994;-69
2021/12/19 00:13:49;;;;;;;4.47;2.60;;;7.30;99.90;7.20;101626.00;;;;5035788;27;92779;-69
2021/12/19 00:16:16;;;;;;;8.27;2.93;;;7.40;99.90;7.20;101634.00;;;;5036012;27;95324;-69
2021/12/19 00:18:43;;;;;;;4.83;3.03;;;7.30;99.90;7.20;101619.00;;;;5016532;27;93991;-69
2021/12/19 00:21:11;;;;;;;2.23;1.80;;;7.30;99.90;7.20;101625.00;;;;5037578;27;93107;-70
2021/12/19 00:23:38;;;;;;;5.77;2.70;;;7.30;99.90;7.20;101628.00;;;;5036292;27;92989;-69
2021/12/19 00:26:04;;;;;;;5.93;2.40;;;7.40;99.90;7.20;101639.00;;;;5017148;27;95422;-70
2021/12/19 00:28:30;;;;;;;3.90;2.60;;;7.40;99.90;7.20;101615.00;;;;5036149;27;93362;-70
2021/12/19 00:30:56;;;;;;;9.33;2.33;;;7.40;99.90;7.20;101620.00;;;;5037667;27;99611;-70
2021/12/19 00:33:21;;;;;;;7.37;2.57;;;7.40;99.90;7.30;101604.00;;;;5050284;27;109096;-69
2021/12/19 00:35:47;;;;;;;3.00;2.23;;;7.40;99.90;7.30;101623.00;;;;5056553;27;93786;-69
2021/12/19 00:38:13;;;;;;;6.00;2.77;;;7.40;99.90;7.30;101618.00;;;;5055259;27;113340;-69
2021/12/19 00:40:39;;;;;;;3.67;2.83;;;7.40;99.90;7.30;101614.00;;;;5053903;27;122499;-69
2021/12/19 00:43:09;;;;;;;4.20;2.90;;;7.40;99.90;7.30;101607.00;;;;5055839;27;93057;-70
2021/12/19 00:45:39;;;;;;;5.20;2.73;;;7.40;99.90;7.30;101619.00;;;;5037610;27;92891;-69
2021/12/19 00:48:08;;;;;;;4.90;2.87;;;7.40;99.90;7.30;101606.00;;;;5055177;27;94056;-69
2021/12/19 00:50:36;;;;;;;4.80;3.33;;;7.40;99.90;7.30;101609.00;;;;5054600;27;93175;-71
2021/12/19 00:53:04;;;;;;;7.77;2.53;;;7.40;99.90;7.30;101600.00;;;;5055914;27;91963;-70
2021/12/19 00:55:30;;;;;;;7.37;3.23;;;7.40;99.90;7.30;101591.00;;;;5038003;27;93103;-69
2021/12/19 00:57:57;;;;;;;5.77;3.13;;;7.40;99.90;7.30;101591.00;;;;5054684;27;122151;-70
2021/12/19 01:00:31;;;;;;;10.77;3.63;;;7.40;99.90;7.30;101587.00;;;;5054860;27;103258;-70
2021/12/19 01:02:59;;;;;;;5.43;3.23;;;7.40;99.90;7.30;101583.00;;;;5055457;27;92853;-70
2021/12/19 01:05:27;;;;;;;4.83;3.03;;;7.40;99.90;7.30;101579.00;;;;5056447;27;92877;-70
2021/12/19 01:07:54;;;;;;;10.73;3.17;;;7.40;99.90;7.30;101579.00;;;;5054895;27;94275;-70
2021/12/19 01:10:20;;;;;;;6.73;3.27;;;7.40;99.90;7.30;101589.00;;;;5019620;27;94650;-71
2021/12/19 01:12:46;;;;;;;5.50;3.13;;;7.50;99.90;7.30;101579.00;;;;5026571;27;96273;-69
2021/12/19 01:15:15;;;;;;;8.10;3.33;;;7.50;99.90;7.40;101570.00;;;;5036880;27;92927;-69
2021/12/19 01:17:41;;;;;;;4.43;2.77;;;7.50;99.90;7.30;101574.00;;;;5055654;27;105144;-69
2021/12/19 01:20:18;;;;;;;4.93;3.07;;;7.50;99.90;7.30;101577.00;;;;5054619;27;121894;-69
2021/12/19 01:22:45;;;;;;;7.60;3.20;;;7.50;99.90;7.40;101575.00;;;;5020049;27;93036;-69
2021/12/19 01:25:11;;;;;;;4.13;3.10;;;7.50;99.90;7.40;101573.00;;;;5034594;27;96563;-69
2021/12/19 01:27:37;;;;;;;8.27;2.63;;;7.50;99.90;7.40;101563.00;;;;5033779;27;94043;-70
2021/12/19 01:30:05;;;;;;;7.70;2.77;;;7.40;99.90;7.40;101558.00;;;;5035038;27;93513;-69
2021/12/19 01:32:33;;;;;;;3.60;2.67;;;7.50;99.90;7.40;101553.00;;;;5023307;27;93204;-72
2021/12/19 01:34:59;;;;;;;7.53;3.20;;;7.50;99.90;7.40;101558.00;;;;5054898;27;108629;-70
2021/12/19 01:37:25;;;;;;;6.33;2.57;;;7.50;99.90;7.40;101550.00;;;;5040439;27;93312;-71
2021/12/19 01:39:52;;;;;;;4.90;2.63;;;7.50;99.90;7.40;101544.00;;;;5034150;27;117770;-73
2021/12/19 01:42:20;;;;;;;3.07;1.90;;;7.50;99.90;7.40;101539.00;;;;5034953;27;96312;-69
2021/12/19 01:44:47;;;;;;;3.50;2.63;;;7.50;99.90;7.40;101536.00;;;;5035450;27;92637;-69
2021/12/19 01:47:14;;;;;;;2.77;2.37;;;7.50;99.90;7.40;101542.00;;;;5015869;27;93091;-70
2021/12/19 01:49:40;;;;;;;6.00;2.60;;;7.50;99.90;7.40;101544.00;;;;5042132;27;94068;-69
2021/12/19 01:52:06;;;;;;;3.60;2.67;;;7.50;99.90;7.40;101534.00;;;;5048688;27;93140;-69
2021/12/19 01:54:31;;;;;;;6.50;2.57;;;7.50;99.90;7.40;101537.00;;;;5034502;27;107980;-71
2021/12/19 01:56:57;;;;;;;3.60;2.40;;;7.50;99.90;7.40;101537.00;;;;5034486;27;93470;-70
2021/12/19 01:59:23;;;;;;;6.40;2.17;;;7.50;99.90;7.40;101536.00;;;;5015322;27;118162;-72
2021/12/19 02:01:53;;;;;;;3.40;2.30;;;7.50;99.90;7.40;101530.00;;;;5033680;27;92935;-71
2021/12/19 02:04:26;;;;;;;6.17;2.47;;;7.50;99.90;7.40;101524.00;;;;5034773;27;92861;-70
2021/12/19 02:06:51;;;;;;;3.83;2.27;;;7.60;99.90;7.40;101535.00;;;;5043917;27;93289;-69
2021/12/19 02:09:18;;;;;;;2.83;2.53;;;7.50;99.90;7.40;101531.00;;;;5053850;27;121654;-72
2021/12/19 02:11:44;;;;;;;6.20;3.10;;;7.60;99.90;7.40;101533.00;;;;5035940;27;92913;-71
2021/12/19 02:14:11;;;;;;;5.43;2.63;;;7.50;99.90;7.40;101525.00;;;;5035131;27;94015;-71
2021/12/19 02:16:39;;;;;;;3.90;2.50;;;7.50;99.90;7.40;101522.00;;;;5054443;27;93956;-70
2021/12/19 02:19:06;;;;;;;8.83;2.80;;;7.60;99.90;7.40;101522.00;;;;5054161;27;92819;-70
2021/12/19 02:21:32;;;;;;;3.83;2.23;;;7.60;99.90;7.40;101516.00;;;;5034229;27;92906;-71
2021/12/19 02:24:01;;;;;;;4.23;2.60;;;7.50;99.90;7.40;101523.00;;;;5054741;27;93905;-71
2021/12/19 02:26:26;;;;;;;3.37;2.33;;;7.50;99.90;7.40;101511.00;;;;5035193;27;93593;-70
2021/12/19 02:28:52;;;;;;;4.33;2.60;;;7.50;99.90;7.40;101508.00;;;;5053460;27;121733;-70
2021/12/19 02:31:20;;;;;;;6.07;3.03;;;7.50;99.90;7.40;101499.00;;;;5055582;27;92088;-71
2021/12/19 02:34:00;;;;;;;3.30;2.90;;;7.50;99.90;7.40;101491.00;;;;5054101;27;92918;-71
2021/12/19 02:37:31;;;;;;;4.83;2.87;;;7.50;99.90;7.40;101485.00;;;;5036294;27;92908;-70
2021/12/19 02:50:23;;;;;;;7.43;2.80;;;7.40;99.90;7.30;101457.00;;;;5050404;27;92941;-72
2021/12/19 02:52:49;;;;;;;6.67;2.80;;;7.50;99.90;7.40;101443.00;;;;5037475;27;92946;-71
2021/12/19 02:55:16;;;;;;;4.53;2.93;;;7.50;99.90;7.30;101435.00;;;;5034110;27;92780;-72
2021/12/19 02:57:43;;;;;;;5.07;2.60;;;7.50;99.90;7.30;101451.00;;;;5033634;27;92015;-70
2021/12/19 03:00:18;;;;;;;10.77;2.93;;;7.40;99.90;7.30;101450.00;;;;5032641;27;92819;-71
2021/12/19 03:02:43;;;;;;;2.47;1.93;;;7.40;99.90;7.30;101450.00;;;;5010630;27;92923;-72
2021/12/19 03:05:09;;;;;;;5.47;2.50;;;7.40;99.90;7.30;101427.00;;;;5033138;27;108576;-71
2021/12/19 03:07:40;;;;;;;2.90;2.00;;;7.40;99.90;7.30;101428.00;;;;5051194;27;122515;-71
2021/12/19 03:18:29;;;;;;;3.07;1.93;;;7.40;99.90;7.20;101399.00;;;;5031897;27;93005;-69
2021/12/19 03:20:54;;;;;;;3.30;2.10;;;7.40;99.90;7.20;101389.00;;;;5048485;27;93140;-71
2021/12/19 03:23:21;;;;;;;5.90;2.57;;;7.30;99.90;7.20;101382.00;;;;5054456;27;92258;-70
2021/12/19 03:25:47;;;;;;;2.97;1.87;;;7.40;99.90;7.20;101376.00;;;;5054546;27;92805;-71
2021/12/19 03:28:14;;;;;;;5.47;2.30;;;7.30;99.90;7.20;101372.00;;;;5053014;27;109257;-70
2021/12/19 03:30:44;;;;;;;2.57;1.93;;;7.30;99.90;7.20;101372.00;;;;5053365;27;93803;-70
2021/12/19 03:33:11;;;;;;;4.83;2.83;;;7.30;99.90;7.20;101378.00;;;;5053182;27;92847;-71
2021/12/19 03:35:37;;;;;;;3.50;2.43;;;7.30;99.90;7.20;101383.00;;;;5054128;27;92746;-70
2021/12/19 03:38:07;;;;;;;4.80;2.50;;;7.30;99.90;7.20;101395.00;;;;5032622;27;94477;-71
2021/12/19 03:40:39;;;;;;;5.23;2.77;;;7.30;99.90;7.20;101391.00;;;;5048988;27;92922;-71
2021/12/19 03:43:15;;;;;;;4.87;2.93;;;7.30;99.90;7.20;101388.00;;;;5032917;27;92671;-70
2021/12/19 03:45:44;;;;;;;10.50;3.67;;;7.30;99.90;7.20;101388.00;;;;5033598;27;93386;-70
2021/12/19 03:48:13;;;;;;;4.60;3.83;;;7.40;99.90;7.20;101394.00;;;;5053046;27;93470;-70
2021/12/19 03:50:47;;;;;;;12.03;4.10;;;7.40;99.90;7.20;101404.00;;;;5033429;27;93159;-69
2021/12/19 03:53:15;;;;;;;6.33;3.67;;;7.30;99.90;7.20;101380.00;;;;5053149;27;92952;-70
2021/12/19 03:55:42;;;;;;;6.70;4.20;;;7.30;99.90;7.20;101376.00;;;;5054008;27;93990;-70
2021/12/19 03:58:08;;;;;;;7.30;4.50;;;7.40;99.90;7.20;101371.00;;;;5040328;27;93289;-71
2021/12/19 04:00:35;;;;;;;10.87;4.33;;;7.40;99.90;7.20;101372.00;;;;5017489;27;98174;-71
2021/12/19 04:03:09;;;;;;;8.27;4.60;;;7.30;99.90;7.20;101365.00;;;;5027871;27;93109;-70
2021/12/19 04:05:35;;;;;;;7.50;4.47;;;7.40;99.90;7.20;101348.00;;;;5053236;27;92855;-70
2021/12/19 04:08:01;;;;;;;6.67;4.43;;;7.40;99.90;7.20;101350.00;;;;5047829;27;100808;-69
2021/12/19 04:10:28;;;;;;;4.67;3.97;;;7.30;99.90;7.20;101345.00;;;;5047763;27;103595;-71
2021/12/19 04:12:55;;;;;;;8.97;3.60;;;7.30;99.90;7.20;101341.00;;;;5053626;27;92279;-71
2021/12/19 04:15:21;;;;;;;6.47;4.17;;;7.30;99.90;7.20;101338.00;;;;5036336;27;92935;-71
2021/12/19 04:17:47;;;;;;;4.90;3.77;;;7.20;99.90;7.20;101368.00;;;;5037266;27;92656;-71
2021/12/19 04:20:15;;;;;;;6.10;3.53;;;7.30;99.90;7.10;101363.00;;;;5055913;27;97720;-71
2021/12/19 04:22:42;;;;;;;4.93;3.30;;;7.30;99.90;7.10;101356.00;;;;5037406;27;93050;-69
2021/12/19 04:25:10;;;;;;;4.17;3.30;;;7.30;99.90;7.10;101347.00;;;;5056975;27;92698;-70
2021/12/19 04:27:37;;;;;;;4.20;3.50;;;7.20;99.90;7.10;101356.00;;;;5040005;27;93542;-69
2021/12/19 04:30:10;;;;;;;4.70;3.13;;;7.10;99.90;7.10;101348.00;;;;5017507;27;93198;-68
2021/12/19 04:32:41;;;;;;;4.70;3.53;;;7.20;99.90;7.10;101339.00;;;;5056244;27;92968;-70
2021/12/19 04:35:09;;;;;;;5.00;3.53;;;7.20;99.90;7.10;101341.00;;;;5057119;27;93080;-70
2021/12/19 04:40:17;;;;;;;7.70;3.60;;;7.20;99.90;7.10;101333.00;;;;5052629;27;93101;-70
2021/12/19 04:43:46;;;;;;;8.90;3.03;;;7.20;99.90;7.10;101329.00;;;;5056691;27;93224;-71
2021/12/19 04:51:13;;;;;;;3.83;3.33;;;7.10;99.90;7.10;101366.00;;;;5032265;27;92925;-71
2021/12/19 05:14:07;;;;;;;6.33;4.87;;;7.20;99.90;7.00;101339.00;;;;5051347;27;93288;-70
2021/12/19 05:15:03;;;;;;;6.93;4.17;;;7.10;99.90;7.00;101332.00;;;;5032519;27;92799;-71
2021/12/19 05:17:30;;;;;;;9.63;4.30;;;7.20;99.90;7.00;101320.00;;;;5049801;27;92955;-69
2021/12/19 05:22:35;;;;;;;8.07;4.73;;;7.10;99.90;7.00;101339.00;;;;5031442;27;92953;-69
2021/12/19 05:25:12;;;;;;;6.13;4.07;;;7.10;99.90;7.00;101339.00;;;;5036907;27;92921;-69
2021/12/19 05:27:40;;;;;;;6.50;3.73;;;7.10;99.90;7.00;101347.00;;;;5035970;27;92682;-69
2021/12/19 05:30:07;;;;;;;4.53;3.23;;;7.10;99.90;7.00;101356.00;;;;5045032;27;92415;-69
2021/12/19 05:32:32;;;;;;;6.67;3.47;;;7.20;99.90;7.10;101367.00;;;;5036508;27;92940;-68
2021/12/19 05:34:58;;;;;;;3.53;2.97;;;7.20;99.90;7.10;101357.00;;;;5054159;27;109479;-69
2021/12/19 05:45:37;;;;;;;4.50;2.90;;;7.10;99.90;7.10;101352.00;;;;5052356;27;92951;-69
2021/12/19 05:48:03;;;;;;;7.23;3.40;;;7.20;99.90;7.10;101361.00;;;;5053536;27;108451;-70
2021/12/19 05:50:29;;;;;;;6.17;4.23;;;6.80;99.90;7.10;101375.00;;;;5054821;27;108731;-69
2021/12/19 05:52:54;;;;;;;4.80;2.83;;;7.20;99.90;7.10;101366.00;;;;5048695;27;122312;-69
2021/12/19 05:55:20;;;;;;;5.77;2.90;;;7.20;99.90;7.10;101367.00;;;;5034286;27;107796;-69
2021/12/19 05:57:46;;;;;;;3.40;2.77;;;7.20;99.90;7.10;101365.00;;;;5015863;27;92770;-69
2021/12/19 06:00:17;;;;;;;4.90;2.67;;;7.20;99.90;7.10;101368.00;;;;5033439;27;123571;-69
2021/12/19 06:02:43;;;;;;;2.67;1.73;;;7.20;99.90;7.10;101349.00;;;;5051250;27;93838;-69
2021/12/19 06:05:11;;;;;;;4.47;2.37;;;7.20;99.90;7.10;101368.00;;;;5054567;27;92883;-69
2021/12/19 06:07:36;;;;;;;5.10;2.73;;;7.30;99.90;7.10;101344.00;;;;5055267;27;92729;-69
2021/12/19 06:10:04;;;;;;;4.33;2.63;;;7.20;99.90;7.10;101341.00;;;;5053432;27;122625;-69
2021/12/19 06:12:31;;;;;;;2.63;2.10;;;7.20;99.90;7.10;101336.00;;;;5033704;27;95463;-68
2021/12/19 06:14:57;;;;;;;4.13;2.47;;;7.20;99.90;7.00;101338.00;;;;5035027;27;92876;-68
2021/12/19 06:17:23;;;;;;;4.70;2.43;;;7.20;99.90;7.00;101338.00;;;;5048414;27;93017;-69
2021/12/19 06:19:49;;;;;;;1.80;1.70;;;7.20;99.90;7.00;101342.00;;;;5053526;27;96439;-68
2021/12/19 06:22:14;;;;;;;2.50;2.30;;;7.10;99.90;7.00;101340.00;;;;5052256;27;122936;-68
2021/12/19 06:24:40;;;;;;;3.57;2.80;;;7.20;99.90;7.00;101328.00;;;;5034823;27;93064;-69
2021/12/19 06:27:06;;;;;;;3.00;1.87;;;7.20;99.90;7.10;101326.00;;;;5033958;27;108649;-68
2021/12/19 06:29:32;;;;;;;3.03;2.07;;;7.10;99.90;7.00;101319.00;;;;5038011;27;123152;-69
2021/12/19 06:31:59;;;;;;;6.50;2.10;;;7.20;99.90;7.00;101329.00;;;;5032900;27;93844;-69
2021/12/19 06:34:25;;;;;;;3.47;2.13;;;7.10;99.90;7.00;101336.00;;;;5033024;27;92911;-68
2021/12/19 06:36:52;;;;;;;3.33;2.47;;;7.10;99.90;7.00;101325.00;;;;5016823;27;93734;-71
2021/12/19 06:39:19;;;;;;;8.40;2.50;;;7.10;99.90;7.00;101319.00;;;;5033232;27;93859;-68
2021/12/19 06:41:45;;;;;;;5.67;2.63;;;7.10;99.90;7.00;101317.00;;;;5042271;27;109715;-68
2021/12/19 06:44:11;;;;;;;2.77;2.07;;;7.20;99.90;7.00;101318.00;;;;5054943;27;92167;-68
2021/12/19 06:46:37;;;;;;;5.10;2.63;;;7.10;99.90;6.90;101313.00;;;;5053727;27;103973;-68
2021/12/19 06:49:04;;;;;;;4.07;2.67;;;7.10;99.90;6.90;101305.00;;;;5052884;27;122391;-68
2021/12/19 06:51:33;;;;;;;3.50;2.50;;;7.10;99.90;6.90;101300.00;;;;5053342;27;93790;-67
2021/12/19 06:54:00;;;;;;;3.50;2.40;;;7.00;99.90;6.80;101293.00;;;;5041375;27;92879;-69
2021/12/19 06:56:26;;;;;;;3.40;2.27;;;7.00;99.90;6.80;101307.00;;;;5015952;27;92851;-69
2021/12/19 06:58:52;;;;;;;7.23;3.70;;;6.90;99.90;6.80;101307.00;;;;5032609;27;123398;-70
2021/12/19 07:01:18;;;;;;;5.77;3.13;;;6.90;99.90;6.70;101307.00;;;;5033300;27;122684;-69
2021/12/19 07:03:44;;;;;;;7.60;3.70;;;6.90;99.90;6.70;101322.00;;;;5033196;27;110700;-69
2021/12/19 07:06:09;;;;;;;5.97;3.57;;;6.80;99.90;6.70;101307.00;;;;5036948;27;92874;-69
2021/12/19 07:08:35;;;;;;;3.77;2.63;;;6.80;99.90;6.70;101296.00;;;;5052795;27;122798;-68
2021/12/19 07:11:01;;;;;;;4.07;2.70;;;6.80;99.90;6.60;101285.00;;;;5031306;27;122326;-69
2021/12/19 07:13:27;;;;;;;5.17;3.27;;;6.80;99.90;6.60;101293.00;;;;5034383;27;93034;-69
2021/12/19 07:15:55;;;;;;;4.27;2.87;;;6.80;99.90;6.60;101293.00;;;;5031081;27;93721;-69
2021/12/19 07:18:22;;;;;;;6.27;3.33;;;6.90;99.90;6.50;101281.00;;;;5030506;27;94059;-69
2021/12/19 07:20:48;;;;;;;5.20;3.20;;;6.70;99.90;6.50;101277.00;;;;5029098;27;121966;-68
2021/12/19 07:23:17;;;;;;;5.00;3.07;;;6.70;99.90;6.50;101281.00;;;;5034324;27;92954;-69
2021/12/19 07:25:43;;;;;;;4.33;3.20;;;6.60;99.90;6.50;101284.00;;;;5030086;27;92778;-68
2021/12/19 07:28:10;;;;;;;4.77;3.20;;;6.60;99.90;6.40;101283.00;;;;5036330;27;94199;-68
2021/12/19 07:30:37;;;;;;;3.10;2.67;;;6.60;99.90;6.40;101275.00;;;;5029696;27;93711;-69
2021/12/19 07:33:04;;;;;;;3.90;2.97;;;6.50;99.90;6.40;101263.00;;;;5033381;27;92093;-69
2021/12/19 07:35:33;;;;;;;9.20;3.40;;;6.50;99.90;6.40;101258.00;;;;5029821;27;93198;-70
2021/12/19 07:37:59;;;;;;;3.67;3.13;;;6.50;99.90;6.40;101274.00;;;;5035524;27;92966;-70
2021/12/19 07:40:28;;;;;;;5.10;3.23;;;6.50;99.90;6.30;101263.00;;;;5029938;27;122949;-69
2021/12/19 07:42:58;;;;;;;5.17;2.73;;;6.50;99.90;6.30;101266.00;;;;5031954;27;93204;-68
2021/12/19 07:45:24;;;;;;;3.33;2.80;;;6.50;99.90;6.30;101262.00;;;;5032084;27;93104;-68
2021/12/19 07:47:49;;;;;;;3.03;2.07;;;6.50;99.90;6.30;101256.00;;;;5028972;27;120883;-68
2021/12/19 07:50:15;;;;;;;5.17;3.27;;;6.40;99.90;6.30;101267.00;;;;5031372;27;122225;-69
2021/12/19 07:52:41;;;;;;;7.70;3.70;;;6.40;99.90;6.30;101258.00;;;;5038599;27;92748;-69
2021/12/19 07:55:08;;;;;;;9.73;3.30;;;6.50;99.90;6.30;101250.00;;;;5034277;27;95708;-70
2021/12/19 07:57:34;;;;;;;5.70;2.90;;;6.40;99.90;6.20;101249.00;;;;5033231;27;109296;-68
2021/12/19 08:00:00;;;;;;;4.07;3.03;;;6.40;99.90;6.20;101257.00;;;;5012958;27;121100;-69
2021/12/19 08:02:27;;;;;;;3.13;2.83;;;6.50;99.90;6.20;101240.00;;;;5034333;27;95212;-68
2021/12/19 08:04:52;;;;;;;3.63;2.87;;;5.00;99.90;6.20;101238.00;;;;5033319;27;93958;-68
2021/12/19 08:07:23;;;;;;;4.33;2.93;;;6.30;99.90;6.20;101235.00;;;;5031898;27;121896;-68
2021/12/19 08:11:39;;;;;;;5.27;3.30;;;6.30;99.90;6.20;101232.00;;;;5033637;27;94002;-68
2021/12/19 08:12:42;;;;;;;4.93;3.17;;;6.30;99.90;6.20;101229.00;;;;5029252;27;92909;-68
2021/12/19 08:15:09;;;;;;;5.33;3.17;;;6.30;99.90;6.20;101238.00;;;;5018254;27;92929;-68
2021/12/19 08:17:35;;;;;;;4.83;3.27;;;6.30;99.90;6.20;101229.00;;;;5032371;27;92891;-67
2021/12/19 08:20:05;;;;;;;7.30;3.83;;;6.30;99.90;6.20;101232.00;;;;5032719;27;109032;-68
2021/12/19 08:22:32;;;;;;;5.53;3.47;;;6.30;99.90;6.20;101217.00;;;;5033436;27;91912;-68
2021/12/19 08:24:58;;;;;;;4.33;2.90;;;6.30;99.90;6.20;101237.00;;;;5033189;27;92666;-68
2021/12/19 08:27:25;;;;;;;3.63;2.70;;;6.40;99.90;6.20;101222.00;;;;5016151;27;122524;-69
2021/12/19 08:29:53;;;;;;;5.73;3.00;;;6.40;99.90;6.20;101222.00;;;;5033752;27;94147;-68
2021/12/19 08:32:19;;;;;;;4.30;2.90;;;6.40;99.90;6.20;101214.00;;;;5038310;27;92683;-68
2021/12/19 08:34:45;;;;;;;7.67;2.80;;;6.40;99.90;6.20;101206.00;;;;5042897;27;108959;-68
2021/12/19 08:37:11;;;;;;;4.37;2.83;;;6.40;99.90;6.30;101200.00;;;;5052194;27;93883;-68
2021/12/19 08:39:38;;;;;;;6.23;3.40;;;6.30;99.90;6.20;101197.00;;;;5053384;27;93413;-67
2021/12/19 08:42:06;;;;;;;3.40;2.63;;;6.40;99.90;6.30;101206.00;;;;5041671;27;92931;-70
2021/12/19 08:44:32;;;;;;;7.83;3.23;;;6.40;99.90;6.30;101205.00;;;;5033043;27;93010;-68
2021/12/19 08:46:58;;;;;;;3.97;3.30;;;6.40;99.90;6.30;101193.00;;;;5032350;27;111864;-67
2021/12/19 08:49:24;;;;;;;7.43;3.30;;;6.40;99.90;6.30;101191.00;;;;5032828;27;108446;-68
2021/12/19 08:51:50;;;;;;;4.60;3.13;;;6.80;99.90;6.30;101191.00;;;;5031898;27;97250;-69
2021/12/19 08:54:15;;;;;;;6.80;3.47;;;6.40;99.90;6.30;101179.00;;;;5051338;27;108839;-68
2021/12/19 08:56:41;;;;;;;6.70;3.83;;;6.50;99.90;6.30;101168.00;;;;5034235;27;107400;-68
2021/12/19 08:59:09;;;;;;;5.80;2.60;;;6.50;99.90;6.30;101179.00;;;;5032189;27;115705;-68
2021/12/19 09:01:36;;;;;;;4.87;2.93;;;6.40;99.90;6.30;101174.00;;;;5033593;27;92645;-66
2021/12/19 09:04:02;;;;;;;4.70;3.23;;;6.50;99.90;6.40;101173.00;;;;5053119;27;92714;-68
2021/12/19 09:06:27;;;;;;;2.90;2.30;;;6.50;99.90;6.40;101171.00;;;;5053378;27;93241;-68
2021/12/19 09:08:53;;;;;;;5.70;2.90;;;6.50;99.90;6.40;101180.00;;;;5052321;27;99681;-68
2021/12/19 09:11:19;;;;;;;4.17;3.17;;;6.50;99.90;6.40;101175.00;;;;5034958;27;92075;-68
2021/12/19 09:13:45;;;;;;;3.53;2.73;;;6.50;99.90;6.40;101174.00;;;;5033042;27;93594;-68
2021/12/19 09:16:12;;;;;;;6.47;2.67;;;6.50;99.90;6.40;101164.00;;;;5031863;27;97706;-68
2021/12/19 09:18:37;;;;;;;6.97;3.63;;;6.50;99.90;6.40;101162.00;;;;5040497;27;93856;-68
2021/12/19 09:21:04;;;;;;;8.83;2.57;;;6.20;99.90;6.40;101150.00;;;;5051882;27;110100;-68
2021/12/19 09:23:30;;;;;;;4.73;2.77;;;6.50;99.90;6.40;101157.00;;;;5052434;27;109257;-68
2021/12/19 09:25:55;;;;;;;6.23;2.50;;;6.60;99.90;6.40;101164.00;;;;5036231;27;93069;-69
2021/12/19 09:28:21;;;;;;;6.57;3.10;;;6.60;99.90;6.50;101161.00;;;;5031095;27;121228;-68
2021/12/19 09:30:47;;;;;;;4.27;2.50;;;6.60;99.90;6.50;101158.00;;;;5031678;27;110781;-68
2021/12/19 09:33:13;;;;;;;3.63;1.83;;;7.20;99.90;6.50;101143.00;;;;5031650;27;108560;-68
2021/12/19 09:35:39;;;;;;;6.93;2.90;;;6.60;99.90;6.50;101142.00;;;;5013246;27;92719;-68
2021/12/19 09:38:05;;;;;;;5.37;2.57;;;6.60;99.90;6.50;101153.00;;;;5032884;27;120728;-68
2021/12/19 09:40:35;;;;;;;3.47;2.50;;;6.60;99.90;6.50;101143.00;;;;5013017;27;92830;-68
2021/12/19 09:43:21;;;;;;;4.03;2.30;;;6.60;99.90;6.50;101142.00;;;;5031074;27;94224;-69
2021/12/19 09:45:52;;;;;;;6.67;3.00;;;6.60;99.90;6.50;101154.00;;;;5032430;27;93106;-69
2021/12/19 09:48:18;;;;;;;2.70;2.00;;;6.60;99.90;6.50;101148.00;;;;5030960;27;107859;-68
2021/12/19 09:50:44;;;;;;;3.57;2.60;;;6.70;99.90;6.50;101145.00;;;;5030665;27;107536;-67
2021/12/19 09:53:10;;;;;;;4.00;2.10;;;6.60;99.90;6.50;101136.00;;;;5037385;27;109508;-68
2021/12/19 09:55:35;;;;;;;5.33;2.57;;;6.60;99.90;6.50;101131.00;;;;5031735;27;122141;-69
2021/12/19 09:58:01;;;;;;;4.43;2.83;;;6.70;99.90;6.50;101125.00;;;;5051041;27;122147;-68
2021/12/19 10:00:28;;;;;;;10.20;2.93;;;6.70;99.90;6.60;101117.00;;;;5022939;27;91993;-69
2021/12/19 10:02:54;;;;;;;4.07;2.50;;;6.70;99.90;6.60;101121.00;;;;5012360;27;93109;-69
2021/12/19 10:05:27;;;;;;;3.90;2.53;;;6.70;99.90;6.60;101122.00;;;;5036106;27;102505;-69
2021/12/19 10:07:57;;;;;;;3.40;2.60;;;6.70;99.90;6.50;101116.00;;;;5030430;27;94149;-69
2021/12/19 10:10:47;;;;;;;4.23;2.33;;;6.70;99.90;6.60;101115.00;;;;5034960;27;92848;-69
2021/12/19 10:13:14;;;;;;;5.63;3.80;;;6.70;99.90;6.60;101113.00;;;;5039171;27;93044;-68
2021/12/19 10:15:43;;;;;;;2.47;1.97;;;6.70;99.90;6.60;101093.00;;;;5049484;27;94238;-68
2021/12/19 10:18:13;;;;;;;6.20;2.67;;;6.70;99.90;6.60;101092.00;;;;5045826;27;93461;-69
2021/12/19 10:20:59;;;;;;;4.33;2.53;;;6.70;99.90;6.60;101093.00;;;;5038315;27;92960;-69
2021/12/19 10:23:29;;;;;;;5.00;2.43;;;6.70;99.90;6.60;101092.00;;;;5011581;27;93033;-69
2021/12/19 10:26:00;;;;;;;6.10;3.03;;;6.70;99.90;6.60;101105.00;;;;5030957;27;93700;-68
2021/12/19 10:28:27;;;;;;;4.07;2.63;;;6.70;99.90;6.60;101089.00;;;;5020155;27;93200;-69
2021/12/19 10:30:53;;;;;;;4.00;2.30;;;6.70;99.90;6.60;101100.00;;;;5036690;27;93132;-68
2021/12/19 10:33:23;;;;;;;3.20;2.20;;;6.70;99.90;6.60;101096.00;;;;5013590;27;93966;-70
2021/12/19 10:35:58;;;;;;;3.53;1.90;;;6.70;99.90;6.60;101077.00;;;;5048319;27;93155;-69
2021/12/19 10:38:31;;;;;;;3.50;2.60;;;6.80;99.90;6.60;101079.00;;;;5037053;27;94265;-69
2021/12/19 10:41:04;;;;;;;6.27;2.17;;;6.80;99.90;6.60;101068.00;;;;5024822;27;92992;-68
2021/12/19 10:43:32;;;;;;;5.57;1.93;;;6.70;99.90;6.60;101067.00;;;;5031443;27;92749;-68
2021/12/19 10:46:06;;;;;;;3.57;1.87;;;6.70;99.90;6.60;101053.00;;;;5030836;27;93982;-68
2021/12/19 10:48:39;;;;;;;7.67;2.73;;;6.70;99.90;6.50;101060.00;;;;5030491;27;93835;-69
2021/12/19 10:51:15;;;;;;;4.53;2.57;;;6.70;99.90;6.50;101059.00;;;;5027679;27;92071;-67
2021/12/19 10:53:54;;;;;;;6.80;2.07;;;6.70;99.90;6.60;101057.00;;;;5012733;27;92899;-68
2021/12/19 10:56:25;;;;;;;3.20;1.67;;;6.70;99.90;6.60;101056.00;;;;5012042;27;93151;-68
2021/12/19 10:58:58;;;;;;;2.87;2.00;;;6.70;99.90;6.60;101061.00;;;;5011218;27;99598;-68
2021/12/19 11:01:34;;;;;;;4.30;3.03;;;6.60;99.90;6.60;101061.00;;;;5036879;27;92987;-70
2021/12/19 11:04:14;;;;;;;6.23;1.67;;;6.70;99.90;6.60;101056.00;;;;5022741;27;92884;-69
2021/12/19 11:06:53;;;;;;;3.47;2.17;;;6.70;99.90;6.60;101053.00;;;;5031879;27;95318;-70
2021/12/19 11:09:37;;;;;;;6.90;2.00;;;6.70;99.90;6.60;101062.00;;;;5011911;27;92818;-68
2021/12/19 11:12:10;;;;;;;4.30;2.37;;;6.70;99.90;6.60;101050.00;;;;5012099;27;92884;-69
2021/12/19 11:14:40;;;;;;;10.13;2.60;;;6.70;99.90;6.60;101043.00;;;;5031215;27;92765;-68
2021/12/19 11:17:18;;;;;;;2.23;1.60;;;6.70;99.90;6.60;101031.00;;;;5031033;27;92516;-70
2021/12/19 11:19:44;;;;;;;5.80;1.83;;;6.80;99.90;6.60;101035.00;;;;5030792;27;92879;-69
2021/12/19 11:22:12;;;;;;;6.17;2.80;;;6.80;99.90;6.60;101030.00;;;;5029789;27;96897;-69
2021/12/19 11:24:40;;;;;;;2.23;1.90;;;6.80;99.90;6.60;101009.00;;;;5017967;27;94163;-69
2021/12/19 11:27:09;;;;;;;2.23;1.50;;;6.80;99.90;6.60;101030.00;;;;5041157;27;93410;-70
2021/12/19 11:29:35;;;;;;;4.20;1.97;;;6.70;99.90;6.60;101028.00;;;;5032545;27;93152;-69
2021/12/19 11:32:06;;;;;;;3.03;1.97;;;6.70;99.90;6.60;101020.00;;;;5029833;27;103837;-69
2021/12/19 11:35:20;;;;;;;6.33;2.17;;;6.70;99.90;6.60;101005.00;;;;5011844;27;92955;-71
2021/12/19 11:38:01;;;;;;;3.50;1.80;;;6.80;99.90;6.60;101008.00;;;;5030181;27;108440;-69
2021/12/19 11:40:32;;;;;;;1.80;1.47;;;6.80;99.90;6.60;100998.00;;;;5011070;27;93074;-69
2021/12/19 11:43:16;;;;;;;2.67;1.87;;;6.80;99.90;6.60;100999.00;;;;5030687;27;92124;-69
2021/12/19 11:45:54;;;;;;;4.80;1.97;;;6.80;99.90;6.60;100988.00;;;;5029404;27;95265;-70
2021/12/19 11:48:32;;;;;;;2.50;1.53;;;6.80;99.90;6.60;100993.00;;;;5029583;27;94268;-69
2021/12/19 11:51:00;;;;;;;1.13;1.00;;;6.70;99.90;6.60;100989.00;;;;5029432;27;93669;-69
2021/12/19 11:53:29;;;;;;;2.47;1.60;;;6.80;99.90;6.60;100990.00;;;;5030393;27;92918;-69
2021/12/19 11:56:17;;;;;;;2.30;1.47;;;6.80;99.90;6.60;100969.00;;;;5015510;27;93215;-69
2021/12/19 11:58:51;;;;;;;1.30;1.10;;;6.70;99.90;6.70;100961.00;;;;5035444;27;93045;-70
2021/12/19 12:01:19;;;;;;;2.57;1.30;;;6.80;99.90;6.70;100963.00;;;;5030469;27;94719;-69
2021/12/19 12:04:11;;;;;;;1.30;0.83;;;6.80;99.90;6.70;100964.00;;;;5049204;27;93005;-69
2021/12/19 12:06:43;;;;;;;5.77;1.00;;;6.80;99.90;6.70;100974.00;;;;5028944;27;92840;-69